Samantha — VMQ9903 — position and weather

sailwx.info

Track history (hours):
 
Tides and Currents Weather Stations Pressure Air Temp Water Temp Dewpoint Dewpoint Depression Visibility Wind Speed Wind Dir Waves Ship Positions

Samantha

Last reported at 2015-Jul-28 00:31 UTC. Time now 2015-Jul-28 01:30 UTC.
Position S 12°28' E 130°51'.

Length 22 m; draft 3.5 m.

Type: Tug. MMSI: 503540300.

Date/timePositionNaut miles runAvg speedWind from/ knotsBaromVisibWave heightAir tempDewpointWater temp
2015-Jul-28 00:31S 12°28' E 130°51'0 0.1
2015-Jul-27 23:31S 12°28' E 130°51'0 0.1
2015-Jul-27 22:31S 12°28' E 130°51'0 0.0
2015-Jul-27 21:31S 12°28' E 130°51'0 0.0
2015-Jul-27 20:31S 12°28' E 130°51'0 0.0
2015-Jul-27 19:31S 12°28' E 130°51'0 0.0
2015-Jul-27 18:31S 12°28' E 130°51'0 0.0
2015-Jul-27 17:31S 12°28' E 130°51'0 0.0
2015-Jul-27 16:31S 12°28' E 130°51'0 0.0
2015-Jul-27 15:31S 12°28' E 130°51'0 0.0
2015-Jul-27 14:31S 12°28' E 130°51'6 6.7
2015-Jul-27 13:33S 12°23' E 130°46'6 6.1
2015-Jul-27 12:30S 12°19' E 130°51'  
2015-Jul-18 10:21S 12°14' E 130°50'6 7.3
2015-Jul-18 09:33S 12°19' E 130°47'5 5.0
2015-Jul-18 08:33S 12°24' E 130°47'1 1.1
2015-Jul-18 07:33S 12°25' E 130°47'4 4.3
2015-Jul-18 06:32S 12°28' E 130°51'0 0.0
2015-Jul-18 05:32S 12°28' E 130°51'0 0.0
2015-Jul-18 04:32S 12°28' E 130°51'0 0.0
2015-Jul-18 03:32S 12°28' E 130°51'2 1.7
2015-Jul-18 02:33S 12°28' E 130°49'5 5.3
2015-Jul-18 01:33S 12°24' E 130°47'5 5.0
2015-Jul-18 00:33S 12°28' E 130°49'  
Track history (hours):
 
Tides and Currents Weather Stations Pressure Air Temp Water Temp Dewpoint Dewpoint Depression Visibility Wind Speed Wind Dir Waves Ship Positions

Samantha

Last reported at 2015-Jul-28 00:31 UTC. Time now 2015-Jul-28 01:30 UTC.
Position S 12°28' E 130°51'.

Length 22 m; draft 3.5 m.

Type: Tug. MMSI: 503540300.

Date/timePositionNaut miles runAvg speedWind from/ knotsBaromVisibWave heightAir tempDewpointWater temp
2015-Jul-28 00:31S 12°28' E 130°51'0 0.1
2015-Jul-27 23:31S 12°28' E 130°51'0 0.1
2015-Jul-27 22:31S 12°28' E 130°51'0 0.0
2015-Jul-27 21:31S 12°28' E 130°51'0 0.0
2015-Jul-27 20:31S 12°28' E 130°51'0 0.0
2015-Jul-27 19:31S 12°28' E 130°51'0 0.0
2015-Jul-27 18:31S 12°28' E 130°51'0 0.0
2015-Jul-27 17:31S 12°28' E 130°51'0 0.0
2015-Jul-27 16:31S 12°28' E 130°51'0 0.0
2015-Jul-27 15:31S 12°28' E 130°51'0 0.0
2015-Jul-27 14:31S 12°28' E 130°51'6 6.7
2015-Jul-27 13:33S 12°23' E 130°46'6 6.1
2015-Jul-27 12:30S 12°19' E 130°51'  
2015-Jul-18 10:21S 12°14' E 130°50'6 7.3
2015-Jul-18 09:33S 12°19' E 130°47'5 5.0
2015-Jul-18 08:33S 12°24' E 130°47'1 1.1
2015-Jul-18 07:33S 12°25' E 130°47'4 4.3
2015-Jul-18 06:32S 12°28' E 130°51'0 0.0
2015-Jul-18 05:32S 12°28' E 130°51'0 0.0
2015-Jul-18 04:32S 12°28' E 130°51'0 0.0
2015-Jul-18 03:32S 12°28' E 130°51'2 1.7
2015-Jul-18 02:33S 12°28' E 130°49'5 5.3
2015-Jul-18 01:33S 12°24' E 130°47'5 5.0
2015-Jul-18 00:33S 12°28' E 130°49'  

Dump ship's entire track history